Airfield :
LOGIN :

Register | Disclaimer

   EN    FR    IT 

 










Legend :    VFR   Marginal VFR   IFR   Intensive IFR   Very Intensive IFR
Visi :
Ceiling :
>= 8 km
>= 3000ft
5 to 8 km
1000 to 3000 ft
1500m to 5 km
500 to 1000 ft
800 to 1500m
200 to 500 ft
< 800m
< 200 ft
Symbols :   Thunderstorms  Fog  Heavy snow  Heavy precipitations  Wind > 20 kt
SIGMETs :     Misc.  Thunderstorms  Icing  Turbulence  Mountain Waves  Volcanic Ashes







- Airport Elevation : 1989 ft
- IATA code : KLV


LKKV - Karlovy Vary

CURRENT METAR :
  • 210100Z 00000KT 5000 BR NSC M01/M01 Q1025

EXPIRED METARs :
  • 210000Z 00000KT CAVOK M01/M01 Q1025
  • 202300Z VRB01KT CAVOK M00/M01 Q1024

TAF TAF LKKV
Valid from the 21 at 00:00 until the 22 at 06:00 UTC


202300Z 2100/2206 22004KT CAVOK
BECMG 2111/2114 26010KT 9999 BKN020
TEMPO 2118/2122 5000 RA BR BKN012
BECMG 2122/2200 4000 BR BKN014
TEMPO 2200/2206 2000 RA BKN004
No reported NOTAMs for that airfield.



MET'MAP, your aeronautical weather chart ! - Copyright ORBIFLY December 2007 - Disclaimer

ORBIFLY MET'MAP TEAM :

Programming & Development : Alexandra Zaïnal
Concept & Development : Baudouin d'Aumeries
Co-Development & Prog : Marc-Olivier Méhu
Technical & hardware support : Manuel Goepfert

Contact : metmap@orbifly.com




SOURCES & CREDITS :

   NOAA